sensor_id;sensor_type;location;lat;lon;timestamp;P1;durP1;ratioP1;P2;durP2;ratioP2
58196;SDS011;43999;51.660;5.616;2023-03-13T00:01:44;18.33;;;6.78;;
58196;SDS011;43999;51.660;5.616;2023-03-13T00:04:16;23.65;;;7.40;;
58196;SDS011;43999;51.660;5.616;2023-03-13T00:06:46;20.20;;;7.28;;
58196;SDS011;43999;51.660;5.616;2023-03-13T00:09:15;16.17;;;6.35;;
58196;SDS011;43999;51.660;5.616;2023-03-13T00:11:44;18.23;;;7.45;;
58196;SDS011;43999;51.660;5.616;2023-03-13T00:14:22;16.67;;;6.65;;
58196;SDS011;43999;51.660;5.616;2023-03-13T00:16:50;26.40;;;7.68;;
58196;SDS011;43999;51.660;5.616;2023-03-13T00:19:18;18.58;;;8.02;;
58196;SDS011;43999;51.660;5.616;2023-03-13T00:21:46;17.77;;;8.02;;
58196;SDS011;43999;51.660;5.616;2023-03-13T00:24:18;19.08;;;8.88;;
58196;SDS011;43999;51.660;5.616;2023-03-13T00:26:46;15.70;;;7.50;;
58196;SDS011;43999;51.660;5.616;2023-03-13T00:29:15;19.10;;;7.30;;
58196;SDS011;43999;51.660;5.616;2023-03-13T00:31:49;22.40;;;7.85;;
58196;SDS011;43999;51.660;5.616;2023-03-13T00:34:17;22.70;;;9.23;;
58196;SDS011;43999;51.660;5.616;2023-03-13T00:36:47;18.08;;;7.20;;
58196;SDS011;43999;51.660;5.616;2023-03-13T00:39:17;20.58;;;7.38;;
58196;SDS011;43999;51.660;5.616;2023-03-13T00:42:00;21.10;;;7.80;;
58196;SDS011;43999;51.660;5.616;2023-03-13T00:44:36;18.48;;;8.07;;
58196;SDS011;43999;51.660;5.616;2023-03-13T00:47:06;19.40;;;6.68;;
58196;SDS011;43999;51.660;5.616;2023-03-13T00:49:35;17.98;;;7.70;;
58196;SDS011;43999;51.660;5.616;2023-03-13T00:52:04;17.02;;;8.48;;
58196;SDS011;43999;51.660;5.616;2023-03-13T00:54:32;28.00;;;10.40;;
58196;SDS011;43999;51.660;5.616;2023-03-13T00:57:10;21.65;;;7.45;;
58196;SDS011;43999;51.660;5.616;2023-03-13T00:59:43;17.42;;;8.05;;
58196;SDS011;43999;51.660;5.616;2023-03-13T01:02:15;15.88;;;8.38;;
58196;SDS011;43999;51.660;5.616;2023-03-13T01:04:43;16.92;;;7.97;;
58196;SDS011;43999;51.660;5.616;2023-03-13T01:07:12;21.33;;;8.57;;
58196;SDS011;43999;51.660;5.616;2023-03-13T01:09:42;22.30;;;8.25;;
58196;SDS011;43999;51.660;5.616;2023-03-13T01:12:10;18.15;;;8.07;;
58196;SDS011;43999;51.660;5.616;2023-03-13T01:14:42;14.80;;;7.03;;
58196;SDS011;43999;51.660;5.616;2023-03-13T01:17:11;27.42;;;8.50;;
58196;SDS011;43999;51.660;5.616;2023-03-13T01:19:38;24.00;;;10.32;;
58196;SDS011;43999;51.660;5.616;2023-03-13T01:22:10;21.15;;;8.82;;
58196;SDS011;43999;51.660;5.616;2023-03-13T01:24:38;26.13;;;11.07;;
58196;SDS011;43999;51.660;5.616;2023-03-13T01:27:09;23.88;;;9.20;;
58196;SDS011;43999;51.660;5.616;2023-03-13T01:29:38;21.58;;;8.93;;
58196;SDS011;43999;51.660;5.616;2023-03-13T01:32:08;23.05;;;10.55;;
58196;SDS011;43999;51.660;5.616;2023-03-13T01:34:36;16.55;;;8.20;;
58196;SDS011;43999;51.660;5.616;2023-03-13T01:37:07;17.90;;;9.40;;
58196;SDS011;43999;51.660;5.616;2023-03-13T01:39:35;18.00;;;9.68;;
58196;SDS011;43999;51.660;5.616;2023-03-13T01:42:04;16.98;;;9.02;;
58196;SDS011;43999;51.660;5.616;2023-03-13T01:44:52;15.95;;;7.95;;
58196;SDS011;43999;51.660;5.616;2023-03-13T01:47:24;14.82;;;9.40;;
58196;SDS011;43999;51.660;5.616;2023-03-13T01:50:01;15.43;;;9.52;;
58196;SDS011;43999;51.660;5.616;2023-03-13T01:52:44;17.38;;;11.32;;
58196;SDS011;43999;51.660;5.616;2023-03-13T01:55:17;16.77;;;9.63;;
58196;SDS011;43999;51.660;5.616;2023-03-13T01:57:49;17.00;;;12.23;;
58196;SDS011;43999;51.660;5.616;2023-03-13T02:00:26;19.98;;;11.13;;
58196;SDS011;43999;51.660;5.616;2023-03-13T02:03:12;15.05;;;10.88;;
58196;SDS011;43999;51.660;5.616;2023-03-13T02:06:09;15.57;;;8.68;;
58196;SDS011;43999;51.660;5.616;2023-03-13T02:08:42;18.48;;;10.57;;
58196;SDS011;43999;51.660;5.616;2023-03-13T02:11:36;19.63;;;10.57;;
58196;SDS011;43999;51.660;5.616;2023-03-13T02:14:26;14.60;;;10.25;;
58196;SDS011;43999;51.660;5.616;2023-03-13T02:16:59;16.45;;;9.30;;
58196;SDS011;43999;51.660;5.616;2023-03-13T02:19:49;13.32;;;9.38;;
58196;SDS011;43999;51.660;5.616;2023-03-13T02:28:08;11.88;;;7.65;;
58196;SDS011;43999;51.660;5.616;2023-03-13T02:31:04;10.90;;;9.38;;
58196;SDS011;43999;51.660;5.616;2023-03-13T02:33:35;12.80;;;8.75;;
58196;SDS011;43999;51.660;5.616;2023-03-13T02:36:10;14.13;;;8.45;;
58196;SDS011;43999;51.660;5.616;2023-03-13T02:38:53;13.13;;;9.80;;
58196;SDS011;43999;51.660;5.616;2023-03-13T02:41:29;14.52;;;8.27;;
58196;SDS011;43999;51.660;5.616;2023-03-13T02:44:00;12.38;;;8.70;;
58196;SDS011;43999;51.660;5.616;2023-03-13T02:46:28;11.25;;;6.82;;
58196;SDS011;43999;51.660;5.616;2023-03-13T02:48:58;9.50;;;7.13;;
58196;SDS011;43999;51.660;5.616;2023-03-13T02:51:50;11.75;;;8.73;;
58196;SDS011;43999;51.660;5.616;2023-03-13T02:54:22;9.50;;;7.15;;
58196;SDS011;43999;51.660;5.616;2023-03-13T02:56:56;14.57;;;7.70;;
58196;SDS011;43999;51.660;5.616;2023-03-13T02:59:59;11.32;;;8.05;;
58196;SDS011;43999;51.660;5.616;2023-03-13T03:02:29;12.80;;;8.07;;
58196;SDS011;43999;51.660;5.616;2023-03-13T03:04:57;10.85;;;7.78;;
58196;SDS011;43999;51.660;5.616;2023-03-13T03:07:25;10.43;;;7.22;;
58196;SDS011;43999;51.660;5.616;2023-03-13T03:09:54;13.40;;;8.40;;
58196;SDS011;43999;51.660;5.616;2023-03-13T03:12:22;11.90;;;8.18;;
58196;SDS011;43999;51.660;5.616;2023-03-13T03:14:50;11.02;;;9.45;;
58196;SDS011;43999;51.660;5.616;2023-03-13T03:17:20;13.13;;;9.57;;
58196;SDS011;43999;51.660;5.616;2023-03-13T03:19:48;9.38;;;8.20;;
58196;SDS011;43999;51.660;5.616;2023-03-13T03:22:25;10.60;;;7.47;;
58196;SDS011;43999;51.660;5.616;2023-03-13T03:24:54;10.85;;;8.18;;
58196;SDS011;43999;51.660;5.616;2023-03-13T03:27:33;9.00;;;7.65;;
58196;SDS011;43999;51.660;5.616;2023-03-13T03:30:17;9.40;;;7.80;;
58196;SDS011;43999;51.660;5.616;2023-03-13T03:32:52;9.82;;;8.35;;
58196;SDS011;43999;51.660;5.616;2023-03-13T03:35:22;10.90;;;8.35;;
58196;SDS011;43999;51.660;5.616;2023-03-13T03:37:50;9.00;;;8.07;;
58196;SDS011;43999;51.660;5.616;2023-03-13T03:40:20;8.90;;;7.38;;
58196;SDS011;43999;51.660;5.616;2023-03-13T03:42:59;8.48;;;7.35;;
58196;SDS011;43999;51.660;5.616;2023-03-13T03:45:33;8.60;;;6.70;;
58196;SDS011;43999;51.660;5.616;2023-03-13T03:48:10;10.75;;;8.63;;
58196;SDS011;43999;51.660;5.616;2023-03-13T03:50:38;9.27;;;8.23;;
58196;SDS011;43999;51.660;5.616;2023-03-13T03:53:13;10.82;;;8.88;;
58196;SDS011;43999;51.660;5.616;2023-03-13T03:55:44;9.60;;;7.72;;
58196;SDS011;43999;51.660;5.616;2023-03-13T03:58:18;7.78;;;6.90;;
58196;SDS011;43999;51.660;5.616;2023-03-13T04:00:58;10.35;;;8.48;;
58196;SDS011;43999;51.660;5.616;2023-03-13T04:03:26;10.80;;;7.72;;
58196;SDS011;43999;51.660;5.616;2023-03-13T04:05:54;9.50;;;8.25;;
58196;SDS011;43999;51.660;5.616;2023-03-13T04:08:33;9.23;;;7.35;;
58196;SDS011;43999;51.660;5.616;2023-03-13T04:11:00;8.32;;;7.50;;
58196;SDS011;43999;51.660;5.616;2023-03-13T04:13:32;10.32;;;7.47;;
58196;SDS011;43999;51.660;5.616;2023-03-13T04:16:07;10.73;;;8.20;;
58196;SDS011;43999;51.660;5.616;2023-03-13T04:18:36;9.70;;;8.70;;
58196;SDS011;43999;51.660;5.616;2023-03-13T04:21:05;9.93;;;8.27;;
58196;SDS011;43999;51.660;5.616;2023-03-13T04:23:41;9.07;;;8.18;;
58196;SDS011;43999;51.660;5.616;2023-03-13T04:26:16;9.93;;;8.32;;
58196;SDS011;43999;51.660;5.616;2023-03-13T04:28:45;10.23;;;9.32;;
58196;SDS011;43999;51.660;5.616;2023-03-13T04:31:19;10.30;;;8.80;;
58196;SDS011;43999;51.660;5.616;2023-03-13T04:34:14;13.48;;;9.48;;
58196;SDS011;43999;51.660;5.616;2023-03-13T04:37:04;10.80;;;9.70;;
58196;SDS011;43999;51.660;5.616;2023-03-13T04:39:42;9.75;;;8.85;;
58196;SDS011;43999;51.660;5.616;2023-03-13T04:42:17;9.55;;;8.27;;
58196;SDS011;43999;51.660;5.616;2023-03-13T04:45:11;9.52;;;7.55;;
58196;SDS011;43999;51.660;5.616;2023-03-13T04:47:55;9.57;;;8.63;;
58196;SDS011;43999;51.660;5.616;2023-03-13T04:50:41;10.13;;;7.88;;
58196;SDS011;43999;51.660;5.616;2023-03-13T04:53:29;8.60;;;7.72;;
58196;SDS011;43999;51.660;5.616;2023-03-13T04:56:12;11.45;;;7.60;;
58196;SDS011;43999;51.660;5.616;2023-03-13T04:59:30;9.20;;;6.63;;
58196;SDS011;43999;51.660;5.616;2023-03-13T05:02:18;9.40;;;7.57;;
58196;SDS011;43999;51.660;5.616;2023-03-13T05:05:13;8.85;;;7.60;;
58196;SDS011;43999;51.660;5.616;2023-03-13T05:08:15;7.60;;;5.90;;
58196;SDS011;43999;51.660;5.616;2023-03-13T05:10:55;9.20;;;6.95;;
58196;SDS011;43999;51.660;5.616;2023-03-13T05:13:41;6.43;;;5.45;;
58196;SDS011;43999;51.660;5.616;2023-03-13T05:16:23;10.85;;;6.63;;
58196;SDS011;43999;51.660;5.616;2023-03-13T05:19:18;11.95;;;5.65;;
58196;SDS011;43999;51.660;5.616;2023-03-13T05:22:12;9.32;;;5.80;;
58196;SDS011;43999;51.660;5.616;2023-03-13T05:25:03;8.25;;;5.72;;
58196;SDS011;43999;51.660;5.616;2023-03-13T05:27:52;7.57;;;5.15;;
58196;SDS011;43999;51.660;5.616;2023-03-13T05:30:40;6.75;;;5.50;;
58196;SDS011;43999;51.660;5.616;2023-03-13T05:33:16;6.20;;;4.93;;
58196;SDS011;43999;51.660;5.616;2023-03-13T05:36:08;9.23;;;4.97;;
58196;SDS011;43999;51.660;5.616;2023-03-13T05:38:54;5.65;;;4.60;;
58196;SDS011;43999;51.660;5.616;2023-03-13T05:41:51;7.93;;;5.78;;
58196;SDS011;43999;51.660;5.616;2023-03-13T05:44:53;8.18;;;5.30;;
58196;SDS011;43999;51.660;5.616;2023-03-13T05:47:47;7.38;;;5.07;;
58196;SDS011;43999;51.660;5.616;2023-03-13T05:50:32;6.80;;;5.00;;
58196;SDS011;43999;51.660;5.616;2023-03-13T05:53:18;7.82;;;4.78;;
58196;SDS011;43999;51.660;5.616;2023-03-13T05:56:04;6.82;;;4.75;;
58196;SDS011;43999;51.660;5.616;2023-03-13T05:58:47;7.85;;;4.90;;
58196;SDS011;43999;51.660;5.616;2023-03-13T06:04:15;7.53;;;4.22;;
58196;SDS011;43999;51.660;5.616;2023-03-13T06:06:45;6.60;;;4.35;;
58196;SDS011;43999;51.660;5.616;2023-03-13T06:09:17;8.57;;;5.13;;
58196;SDS011;43999;51.660;5.616;2023-03-13T06:11:51;7.80;;;4.88;;
58196;SDS011;43999;51.660;5.616;2023-03-13T06:14:42;7.15;;;4.18;;
58196;SDS011;43999;51.660;5.616;2023-03-13T06:17:30;6.85;;;4.28;;
58196;SDS011;43999;51.660;5.616;2023-03-13T06:19:58;7.13;;;4.53;;
58196;SDS011;43999;51.660;5.616;2023-03-13T06:22:33;6.55;;;4.60;;
58196;SDS011;43999;51.660;5.616;2023-03-13T06:25:01;8.45;;;4.82;;
58196;SDS011;43999;51.660;5.616;2023-03-13T06:27:30;10.77;;;4.55;;
58196;SDS011;43999;51.660;5.616;2023-03-13T06:29:58;8.32;;;4.05;;
58196;SDS011;43999;51.660;5.616;2023-03-13T06:32:27;7.18;;;5.63;;
58196;SDS011;43999;51.660;5.616;2023-03-13T06:34:56;6.97;;;4.45;;
58196;SDS011;43999;51.660;5.616;2023-03-13T06:37:25;6.10;;;4.60;;
58196;SDS011;43999;51.660;5.616;2023-03-13T06:39:57;7.70;;;5.00;;
58196;SDS011;43999;51.660;5.616;2023-03-13T06:42:25;12.02;;;4.50;;
58196;SDS011;43999;51.660;5.616;2023-03-13T06:44:54;10.25;;;4.90;;
58196;SDS011;43999;51.660;5.616;2023-03-13T06:47:24;7.75;;;4.00;;
58196;SDS011;43999;51.660;5.616;2023-03-13T06:49:59;9.15;;;4.95;;
58196;SDS011;43999;51.660;5.616;2023-03-13T06:52:26;7.57;;;4.95;;
58196;SDS011;43999;51.660;5.616;2023-03-13T06:55:10;9.32;;;5.35;;
58196;SDS011;43999;51.660;5.616;2023-03-13T06:57:40;6.45;;;4.65;;
58196;SDS011;43999;51.660;5.616;2023-03-13T07:00:08;7.75;;;4.95;;
58196;SDS011;43999;51.660;5.616;2023-03-13T07:02:38;6.57;;;4.30;;
58196;SDS011;43999;51.660;5.616;2023-03-13T07:05:07;8.75;;;4.75;;
58196;SDS011;43999;51.660;5.616;2023-03-13T07:07:37;7.78;;;4.72;;
58196;SDS011;43999;51.660;5.616;2023-03-13T07:10:09;7.35;;;5.22;;
58196;SDS011;43999;51.660;5.616;2023-03-13T07:12:37;6.68;;;4.32;;
58196;SDS011;43999;51.660;5.616;2023-03-13T07:15:06;8.05;;;4.35;;
58196;SDS011;43999;51.660;5.616;2023-03-13T07:17:35;10.55;;;5.07;;
58196;SDS011;43999;51.660;5.616;2023-03-13T07:20:04;9.85;;;4.78;;
58196;SDS011;43999;51.660;5.616;2023-03-13T07:22:38;7.45;;;4.07;;
58196;SDS011;43999;51.660;5.616;2023-03-13T07:25:06;7.38;;;4.47;;
58196;SDS011;43999;51.660;5.616;2023-03-13T07:27:36;5.30;;;3.45;;
58196;SDS011;43999;51.660;5.616;2023-03-13T07:30:04;5.57;;;3.78;;
58196;SDS011;43999;51.660;5.616;2023-03-13T07:32:38;7.90;;;4.70;;
58196;SDS011;43999;51.660;5.616;2023-03-13T07:35:10;7.82;;;4.50;;
58196;SDS011;43999;51.660;5.616;2023-03-13T07:37:39;10.98;;;5.43;;
58196;SDS011;43999;51.660;5.616;2023-03-13T07:40:28;12.23;;;4.88;;
58196;SDS011;43999;51.660;5.616;2023-03-13T07:43:01;7.47;;;4.07;;
58196;SDS011;43999;51.660;5.616;2023-03-13T07:45:29;8.05;;;4.38;;
58196;SDS011;43999;51.660;5.616;2023-03-13T07:47:58;8.15;;;4.95;;
58196;SDS011;43999;51.660;5.616;2023-03-13T07:50:38;10.40;;;4.28;;
58196;SDS011;43999;51.660;5.616;2023-03-13T07:53:13;9.00;;;4.15;;
58196;SDS011;43999;51.660;5.616;2023-03-13T07:56:01;8.50;;;4.18;;
58196;SDS011;43999;51.660;5.616;2023-03-13T07:58:46;9.02;;;4.97;;
58196;SDS011;43999;51.660;5.616;2023-03-13T08:01:17;8.43;;;3.90;;
58196;SDS011;43999;51.660;5.616;2023-03-13T08:03:59;9.07;;;4.95;;
58196;SDS011;43999;51.660;5.616;2023-03-13T08:06:31;8.63;;;4.05;;
58196;SDS011;43999;51.660;5.616;2023-03-13T08:09:04;8.52;;;4.68;;
58196;SDS011;43999;51.660;5.616;2023-03-13T08:11:32;7.50;;;4.45;;
58196;SDS011;43999;51.660;5.616;2023-03-13T08:14:01;6.53;;;4.30;;
58196;SDS011;43999;51.660;5.616;2023-03-13T08:16:44;7.90;;;3.88;;
58196;SDS011;43999;51.660;5.616;2023-03-13T08:19:16;7.50;;;4.35;;
58196;SDS011;43999;51.660;5.616;2023-03-13T08:21:44;12.45;;;4.07;;
58196;SDS011;43999;51.660;5.616;2023-03-13T08:24:16;5.90;;;4.15;;
58196;SDS011;43999;51.660;5.616;2023-03-13T08:26:45;7.35;;;4.35;;
58196;SDS011;43999;51.660;5.616;2023-03-13T08:29:17;9.95;;;4.38;;
58196;SDS011;43999;51.660;5.616;2023-03-13T08:31:46;11.07;;;4.78;;
58196;SDS011;43999;51.660;5.616;2023-03-13T08:34:23;7.53;;;4.18;;
58196;SDS011;43999;51.660;5.616;2023-03-13T08:36:51;9.75;;;4.28;;
58196;SDS011;43999;51.660;5.616;2023-03-13T08:39:28;12.77;;;4.93;;
58196;SDS011;43999;51.660;5.616;2023-03-13T08:41:58;10.55;;;4.35;;
58196;SDS011;43999;51.660;5.616;2023-03-13T08:44:29;7.95;;;5.03;;
58196;SDS011;43999;51.660;5.616;2023-03-13T08:47:06;6.03;;;3.90;;
58196;SDS011;43999;51.660;5.616;2023-03-13T08:49:37;9.70;;;4.90;;
58196;SDS011;43999;51.660;5.616;2023-03-13T08:52:09;11.88;;;4.80;;
58196;SDS011;43999;51.660;5.616;2023-03-13T08:54:37;7.80;;;5.00;;
58196;SDS011;43999;51.660;5.616;2023-03-13T08:57:05;5.40;;;4.30;;
58196;SDS011;43999;51.660;5.616;2023-03-13T08:59:35;8.88;;;4.20;;
58196;SDS011;43999;51.660;5.616;2023-03-13T09:02:02;11.02;;;4.90;;
58196;SDS011;43999;51.660;5.616;2023-03-13T09:04:32;10.27;;;5.95;;
58196;SDS011;43999;51.660;5.616;2023-03-13T09:07:05;7.88;;;5.13;;
58196;SDS011;43999;51.660;5.616;2023-03-13T09:09:42;6.03;;;4.53;;
58196;SDS011;43999;51.660;5.616;2023-03-13T09:12:10;7.75;;;4.60;;
58196;SDS011;43999;51.660;5.616;2023-03-13T09:14:55;10.25;;;5.45;;
58196;SDS011;43999;51.660;5.616;2023-03-13T09:17:25;6.28;;;4.38;;
58196;SDS011;43999;51.660;5.616;2023-03-13T09:19:56;5.72;;;3.80;;
58196;SDS011;43999;51.660;5.616;2023-03-13T09:22:54;9.75;;;3.92;;
58196;SDS011;43999;51.660;5.616;2023-03-13T09:25:29;7.28;;;4.28;;
58196;SDS011;43999;51.660;5.616;2023-03-13T09:27:58;6.18;;;3.42;;
58196;SDS011;43999;51.660;5.616;2023-03-13T09:30:26;8.52;;;3.80;;
58196;SDS011;43999;51.660;5.616;2023-03-13T09:33:00;5.85;;;3.83;;
58196;SDS011;43999;51.660;5.616;2023-03-13T09:35:29;5.72;;;3.42;;
58196;SDS011;43999;51.660;5.616;2023-03-13T09:38:03;4.90;;;3.28;;
58196;SDS011;43999;51.660;5.616;2023-03-13T09:40:43;6.60;;;3.63;;
58196;SDS011;43999;51.660;5.616;2023-03-13T09:49:33;8.80;;;3.58;;
58196;SDS011;43999;51.660;5.616;2023-03-13T09:52:30;6.28;;;3.35;;
58196;SDS011;43999;51.660;5.616;2023-03-13T09:55:20;4.80;;;2.97;;
58196;SDS011;43999;51.660;5.616;2023-03-13T09:57:59;5.68;;;3.97;;
58196;SDS011;43999;51.660;5.616;2023-03-13T10:03:38;5.38;;;3.28;;
58196;SDS011;43999;51.660;5.616;2023-03-13T10:06:17;5.97;;;3.67;;
58196;SDS011;43999;51.660;5.616;2023-03-13T10:08:53;5.47;;;3.08;;
58196;SDS011;43999;51.660;5.616;2023-03-13T10:17:42;5.45;;;3.10;;
58196;SDS011;43999;51.660;5.616;2023-03-13T10:25:53;6.45;;;3.20;;
58196;SDS011;43999;51.660;5.616;2023-03-13T10:28:21;6.97;;;2.45;;
58196;SDS011;43999;51.660;5.616;2023-03-13T10:30:53;5.03;;;2.85;;
58196;SDS011;43999;51.660;5.616;2023-03-13T10:33:40;3.85;;;2.60;;
58196;SDS011;43999;51.660;5.616;2023-03-13T10:36:16;6.68;;;2.65;;
58196;SDS011;43999;51.660;5.616;2023-03-13T10:38:48;4.80;;;2.47;;
58196;SDS011;43999;51.660;5.616;2023-03-13T10:41:25;5.03;;;2.70;;
58196;SDS011;43999;51.660;5.616;2023-03-13T10:44:02;5.22;;;2.72;;
58196;SDS011;43999;51.660;5.616;2023-03-13T10:46:39;3.92;;;2.50;;
58196;SDS011;43999;51.660;5.616;2023-03-13T10:49:15;7.45;;;3.25;;
58196;SDS011;43999;51.660;5.616;2023-03-13T10:51:52;3.70;;;2.90;;
58196;SDS011;43999;51.660;5.616;2023-03-13T10:54:26;5.53;;;2.10;;
58196;SDS011;43999;51.660;5.616;2023-03-13T10:57:27;6.45;;;2.88;;
58196;SDS011;43999;51.660;5.616;2023-03-13T11:00:27;6.57;;;3.65;;
58196;SDS011;43999;51.660;5.616;2023-03-13T11:03:13;4.28;;;2.40;;
58196;SDS011;43999;51.660;5.616;2023-03-13T11:05:55;3.33;;;2.35;;
58196;SDS011;43999;51.660;5.616;2023-03-13T11:08:35;4.70;;;2.67;;
58196;SDS011;43999;51.660;5.616;2023-03-13T11:11:15;3.95;;;2.60;;
58196;SDS011;43999;51.660;5.616;2023-03-13T11:13:47;4.95;;;2.45;;
58196;SDS011;43999;51.660;5.616;2023-03-13T11:16:17;4.55;;;2.30;;
58196;SDS011;43999;51.660;5.616;2023-03-13T11:27:57;3.83;;;2.50;;
58196;SDS011;43999;51.660;5.616;2023-03-13T11:31:02;3.72;;;2.47;;
58196;SDS011;43999;51.660;5.616;2023-03-13T11:36:37;3.22;;;2.28;;
58196;SDS011;43999;51.660;5.616;2023-03-13T11:42:46;3.03;;;2.22;;
58196;SDS011;43999;51.660;5.616;2023-03-13T11:46:34;13.15;;;2.70;;
58196;SDS011;43999;51.660;5.616;2023-03-13T11:52:15;3.47;;;2.08;;
58196;SDS011;43999;51.660;5.616;2023-03-13T11:55:40;4.57;;;2.00;;
58196;SDS011;43999;51.660;5.616;2023-03-13T11:58:53;5.10;;;2.50;;
58196;SDS011;43999;51.660;5.616;2023-03-13T12:01:30;4.30;;;2.58;;
58196;SDS011;43999;51.660;5.616;2023-03-13T12:09:41;5.32;;;2.58;;
58196;SDS011;43999;51.660;5.616;2023-03-13T12:15:19;4.65;;;2.10;;
58196;SDS011;43999;51.660;5.616;2023-03-13T12:18:17;3.47;;;2.15;;
58196;SDS011;43999;51.660;5.616;2023-03-13T12:21:27;5.10;;;2.42;;
58196;SDS011;43999;51.660;5.616;2023-03-13T12:24:05;5.75;;;2.20;;
58196;SDS011;43999;51.660;5.616;2023-03-13T12:26:54;3.75;;;2.17;;
58196;SDS011;43999;51.660;5.616;2023-03-13T12:29:45;3.90;;;1.83;;
58196;SDS011;43999;51.660;5.616;2023-03-13T12:32:33;5.70;;;2.08;;
58196;SDS011;43999;51.660;5.616;2023-03-13T12:35:36;7.57;;;2.08;;
58196;SDS011;43999;51.660;5.616;2023-03-13T12:38:16;4.22;;;2.13;;
58196;SDS011;43999;51.660;5.616;2023-03-13T12:43:44;5.00;;;2.35;;
58196;SDS011;43999;51.660;5.616;2023-03-13T12:46:34;5.57;;;2.25;;
58196;SDS011;43999;51.660;5.616;2023-03-13T12:49:29;3.67;;;2.35;;
58196;SDS011;43999;51.660;5.616;2023-03-13T12:59:21;5.97;;;2.40;;
58196;SDS011;43999;51.660;5.616;2023-03-13T13:02:24;3.42;;;2.25;;
58196;SDS011;43999;51.660;5.616;2023-03-13T13:05:20;6.28;;;2.75;;
58196;SDS011;43999;51.660;5.616;2023-03-13T13:08:25;5.50;;;2.50;;
58196;SDS011;43999;51.660;5.616;2023-03-13T13:17:13;6.32;;;2.33;;
58196;SDS011;43999;51.660;5.616;2023-03-13T13:19:42;5.15;;;2.17;;
58196;SDS011;43999;51.660;5.616;2023-03-13T13:30:48;4.97;;;2.47;;
58196;SDS011;43999;51.660;5.616;2023-03-13T13:38:39;3.50;;;1.95;;
58196;SDS011;43999;51.660;5.616;2023-03-13T13:44:20;4.85;;;2.25;;
58196;SDS011;43999;51.660;5.616;2023-03-13T13:46:54;5.78;;;2.28;;
58196;SDS011;43999;51.660;5.616;2023-03-13T13:49:29;6.75;;;2.75;;
58196;SDS011;43999;51.660;5.616;2023-03-13T13:54:54;4.63;;;2.30;;
58196;SDS011;43999;51.660;5.616;2023-03-13T13:57:26;5.07;;;2.88;;
58196;SDS011;43999;51.660;5.616;2023-03-13T14:00:00;5.20;;;2.53;;
58196;SDS011;43999;51.660;5.616;2023-03-13T14:02:51;4.47;;;2.13;;
58196;SDS011;43999;51.660;5.616;2023-03-13T14:05:23;4.43;;;2.15;;
58196;SDS011;43999;51.660;5.616;2023-03-13T14:08:07;4.93;;;2.83;;
58196;SDS011;43999;51.660;5.616;2023-03-13T14:10:50;5.38;;;2.10;;
58196;SDS011;43999;51.660;5.616;2023-03-13T14:14:12;4.00;;;2.40;;
58196;SDS011;43999;51.660;5.616;2023-03-13T14:16:48;4.07;;;1.75;;
58196;SDS011;43999;51.660;5.616;2023-03-13T14:19:36;4.78;;;2.10;;
58196;SDS011;43999;51.660;5.616;2023-03-13T14:22:10;4.40;;;2.30;;
58196;SDS011;43999;51.660;5.616;2023-03-13T14:24:39;4.57;;;2.30;;
58196;SDS011;43999;51.660;5.616;2023-03-13T14:27:21;4.03;;;2.40;;
58196;SDS011;43999;51.660;5.616;2023-03-13T14:29:59;3.58;;;2.42;;
58196;SDS011;43999;51.660;5.616;2023-03-13T14:32:36;4.57;;;2.22;;
58196;SDS011;43999;51.660;5.616;2023-03-13T14:35:06;6.57;;;2.22;;
58196;SDS011;43999;51.660;5.616;2023-03-13T14:37:53;5.70;;;1.90;;
58196;SDS011;43999;51.660;5.616;2023-03-13T14:40:31;4.30;;;2.28;;
58196;SDS011;43999;51.660;5.616;2023-03-13T14:43:17;2.70;;;1.75;;
58196;SDS011;43999;51.660;5.616;2023-03-13T14:46:29;4.03;;;2.30;;
58196;SDS011;43999;51.660;5.616;2023-03-13T14:52:02;4.13;;;2.38;;
58196;SDS011;43999;51.660;5.616;2023-03-13T14:54:51;4.68;;;3.10;;
58196;SDS011;43999;51.660;5.616;2023-03-13T14:57:57;5.22;;;2.08;;
58196;SDS011;43999;51.660;5.616;2023-03-13T15:00:50;2.72;;;2.10;;
58196;SDS011;43999;51.660;5.616;2023-03-13T15:03:21;6.35;;;2.28;;
58196;SDS011;43999;51.660;5.616;2023-03-13T15:08:42;6.63;;;2.63;;
58196;SDS011;43999;51.660;5.616;2023-03-13T15:11:18;5.15;;;2.45;;
58196;SDS011;43999;51.660;5.616;2023-03-13T15:14:00;8.77;;;2.40;;
58196;SDS011;43999;51.660;5.616;2023-03-13T15:16:28;4.68;;;2.35;;
58196;SDS011;43999;51.660;5.616;2023-03-13T15:18:56;5.03;;;2.72;;
58196;SDS011;43999;51.660;5.616;2023-03-13T15:21:28;5.20;;;2.25;;
58196;SDS011;43999;51.660;5.616;2023-03-13T15:23:59;3.78;;;2.13;;
58196;SDS011;43999;51.660;5.616;2023-03-13T15:26:39;6.05;;;2.47;;
58196;SDS011;43999;51.660;5.616;2023-03-13T15:29:08;3.13;;;2.17;;
58196;SDS011;43999;51.660;5.616;2023-03-13T15:32:08;6.80;;;2.50;;
58196;SDS011;43999;51.660;5.616;2023-03-13T15:35:35;4.38;;;2.72;;
58196;SDS011;43999;51.660;5.616;2023-03-13T15:38:20;4.13;;;2.58;;
58196;SDS011;43999;51.660;5.616;2023-03-13T15:41:26;4.60;;;2.17;;
58196;SDS011;43999;51.660;5.616;2023-03-13T15:44:27;6.88;;;2.03;;
58196;SDS011;43999;51.660;5.616;2023-03-13T15:48:28;4.57;;;2.20;;
58196;SDS011;43999;51.660;5.616;2023-03-13T15:51:59;5.18;;;2.03;;
58196;SDS011;43999;51.660;5.616;2023-03-13T15:55:04;6.68;;;2.42;;
58196;SDS011;43999;51.660;5.616;2023-03-13T15:58:31;4.80;;;2.40;;
58196;SDS011;43999;51.660;5.616;2023-03-13T16:02:59;6.38;;;2.35;;
58196;SDS011;43999;51.660;5.616;2023-03-13T16:06:19;6.60;;;3.13;;
58196;SDS011;43999;51.660;5.616;2023-03-13T16:10:00;5.72;;;2.40;;
58196;SDS011;43999;51.660;5.616;2023-03-13T16:13:36;6.47;;;2.97;;
58196;SDS011;43999;51.660;5.616;2023-03-13T16:16:25;5.57;;;2.30;;
58196;SDS011;43999;51.660;5.616;2023-03-13T16:20:42;4.68;;;2.95;;
58196;SDS011;43999;51.660;5.616;2023-03-13T16:23:58;7.20;;;2.80;;
58196;SDS011;43999;51.660;5.616;2023-03-13T16:27:00;8.02;;;2.40;;
58196;SDS011;43999;51.660;5.616;2023-03-13T16:30:50;4.30;;;2.65;;
58196;SDS011;43999;51.660;5.616;2023-03-13T16:34:18;5.53;;;2.42;;
58196;SDS011;43999;51.660;5.616;2023-03-13T16:37:47;5.85;;;2.75;;
58196;SDS011;43999;51.660;5.616;2023-03-13T16:41:38;6.30;;;2.95;;
58196;SDS011;43999;51.660;5.616;2023-03-13T16:45:08;8.38;;;3.67;;
58196;SDS011;43999;51.660;5.616;2023-03-13T16:49:16;8.43;;;3.30;;
58196;SDS011;43999;51.660;5.616;2023-03-13T16:52:08;4.93;;;2.83;;
58196;SDS011;43999;51.660;5.616;2023-03-13T16:56:04;5.85;;;2.85;;
58196;SDS011;43999;51.660;5.616;2023-03-13T16:59:03;7.15;;;3.47;;
58196;SDS011;43999;51.660;5.616;2023-03-13T17:03:16;8.45;;;3.15;;
58196;SDS011;43999;51.660;5.616;2023-03-13T17:06:46;6.65;;;3.13;;
58196;SDS011;43999;51.660;5.616;2023-03-13T17:10:40;5.93;;;2.70;;
58196;SDS011;43999;51.660;5.616;2023-03-13T17:14:30;6.13;;;2.90;;
58196;SDS011;43999;51.660;5.616;2023-03-13T17:18:08;7.43;;;2.80;;
58196;SDS011;43999;51.660;5.616;2023-03-13T17:22:33;4.82;;;2.70;;
58196;SDS011;43999;51.660;5.616;2023-03-13T17:26:34;7.70;;;2.70;;
58196;SDS011;43999;51.660;5.616;2023-03-13T17:30:24;7.47;;;3.45;;
58196;SDS011;43999;51.660;5.616;2023-03-13T17:34:36;7.75;;;3.33;;
58196;SDS011;43999;51.660;5.616;2023-03-13T17:38:11;10.70;;;4.03;;
58196;SDS011;43999;51.660;5.616;2023-03-13T17:46:24;6.50;;;3.30;;
58196;SDS011;43999;51.660;5.616;2023-03-13T17:51:01;7.13;;;3.45;;
58196;SDS011;43999;51.660;5.616;2023-03-13T17:54:36;8.77;;;2.45;;
58196;SDS011;43999;51.660;5.616;2023-03-13T18:01:33;5.97;;;2.92;;
58196;SDS011;43999;51.660;5.616;2023-03-13T18:10:52;6.45;;;2.70;;
58196;SDS011;43999;51.660;5.616;2023-03-13T18:14:40;6.47;;;3.28;;
58196;SDS011;43999;51.660;5.616;2023-03-13T18:17:47;5.63;;;3.35;;
58196;SDS011;43999;51.660;5.616;2023-03-13T18:21:11;5.07;;;3.25;;